sensor_id;sensor_type;location;lat;lon;timestamp;pressure;altitude;pressure_sealevel;temperature;humidity
54936;BME280;40838;50.676;7.838;2023-04-27T00:00:23;98541.25;;;1.95;100.00
54936;BME280;40838;50.676;7.838;2023-04-27T00:03:07;98543.75;;;1.83;100.00
54936;BME280;40838;50.676;7.838;2023-04-27T00:05:34;98546.97;;;1.60;100.00
54936;BME280;40838;50.676;7.838;2023-04-27T00:08:02;98541.88;;;1.65;100.00
54936;BME280;40838;50.676;7.838;2023-04-27T00:10:49;98542.56;;;1.54;100.00
54936;BME280;40838;50.676;7.838;2023-04-27T00:13:15;98539.88;;;1.36;100.00
54936;BME280;40838;50.676;7.838;2023-04-27T00:15:42;98537.72;;;1.26;100.00
54936;BME280;40838;50.676;7.838;2023-04-27T00:23:59;98536.09;;;1.25;100.00
54936;BME280;40838;50.676;7.838;2023-04-27T00:26:26;98535.84;;;1.33;100.00
54936;BME280;40838;50.676;7.838;2023-04-27T00:28:53;98539.81;;;1.42;100.00
54936;BME280;40838;50.676;7.838;2023-04-27T00:34:26;98540.47;;;1.31;100.00
54936;BME280;40838;50.676;7.838;2023-04-27T00:36:53;98548.72;;;1.41;100.00
54936;BME280;40838;50.676;7.838;2023-04-27T00:39:21;98541.81;;;1.47;100.00
54936;BME280;40838;50.676;7.838;2023-04-27T00:42:05;98541.81;;;1.47;100.00
54936;BME280;40838;50.676;7.838;2023-04-27T00:44:55;98540.03;;;1.41;100.00
54936;BME280;40838;50.676;7.838;2023-04-27T00:47:22;98548.28;;;1.44;100.00
54936;BME280;40838;50.676;7.838;2023-04-27T00:50:08;98545.84;;;1.49;100.00
54936;BME280;40838;50.676;7.838;2023-04-27T00:52:36;98537.00;;;1.44;100.00
54936;BME280;40838;50.676;7.838;2023-04-27T00:55:05;98543.97;;;1.57;100.00
54936;BME280;40838;50.676;7.838;2023-04-27T01:03:22;98545.13;;;1.36;100.00
54936;BME280;40838;50.676;7.838;2023-04-27T01:05:48;98546.75;;;0.33;100.00
54936;BME280;40838;50.676;7.838;2023-04-27T01:08:15;98555.16;;;1.07;100.00
54936;BME280;40838;50.676;7.838;2023-04-27T01:10:43;98549.16;;;1.63;100.00
54936;BME280;40838;50.676;7.838;2023-04-27T01:16:31;98561.03;;;1.72;100.00
54936;BME280;40838;50.676;7.838;2023-04-27T01:22:21;98562.41;;;1.50;100.00
54936;BME280;40838;50.676;7.838;2023-04-27T01:28:11;98556.72;;;1.53;100.00
54936;BME280;40838;50.676;7.838;2023-04-27T01:30:38;98556.28;;;1.24;100.00
54936;BME280;40838;50.676;7.838;2023-04-27T01:33:05;98556.47;;;1.30;100.00
54936;BME280;40838;50.676;7.838;2023-04-27T01:35:31;98555.63;;;1.36;100.00
54936;BME280;40838;50.676;7.838;2023-04-27T01:44:25;98556.28;;;1.24;100.00
54936;BME280;40838;50.676;7.838;2023-04-27T01:47:13;98557.00;;;1.38;100.00
54936;BME280;40838;50.676;7.838;2023-04-27T01:49:40;98548.66;;;1.55;100.00
54936;BME280;40838;50.676;7.838;2023-04-27T01:52:08;98558.16;;;1.49;100.00
54936;BME280;40838;50.676;7.838;2023-04-27T01:57:21;98558.38;;;1.09;100.00
54936;BME280;40838;50.676;7.838;2023-04-27T01:59:49;98554.06;;;1.21;100.00
54936;BME280;40838;50.676;7.838;2023-04-27T02:02:16;98556.16;;;1.44;100.00
54936;BME280;40838;50.676;7.838;2023-04-27T02:04:43;98550.47;;;1.16;100.00
54936;BME280;40838;50.676;7.838;2023-04-27T02:16:04;98560.81;;;1.04;100.00
54936;BME280;40838;50.676;7.838;2023-04-27T02:18:33;98572.81;;;1.25;100.00
54936;BME280;40838;50.676;7.838;2023-04-27T02:21:17;98574.44;;;1.26;100.00
54936;BME280;40838;50.676;7.838;2023-04-27T02:24:02;98573.38;;;1.34;100.00
54936;BME280;40838;50.676;7.838;2023-04-27T02:26:29;98572.97;;;1.37;100.00
54936;BME280;40838;50.676;7.838;2023-04-27T02:29:13;98574.44;;;1.26;100.00
54936;BME280;40838;50.676;7.838;2023-04-27T02:31:59;98571.91;;;1.44;100.00
54936;BME280;40838;50.676;7.838;2023-04-27T02:37:47;98575.16;;;1.40;100.00
54936;BME280;40838;50.676;7.838;2023-04-27T02:40:52;98577.59;;;1.41;100.00
54936;BME280;40838;50.676;7.838;2023-04-27T02:43:37;98575.38;;;1.38;100.00
54936;BME280;40838;50.676;7.838;2023-04-27T02:48:54;98568.69;;;1.42;100.00
54936;BME280;40838;50.676;7.838;2023-04-27T02:51:22;98566.72;;;1.38;100.00
54936;BME280;40838;50.676;7.838;2023-04-27T02:53:48;98565.50;;;1.34;100.00
54936;BME280;40838;50.676;7.838;2023-04-27T02:59:19;98565.63;;;1.14;100.00
54936;BME280;40838;50.676;7.838;2023-04-27T03:01:47;98568.69;;;1.04;100.00
54936;BME280;40838;50.676;7.838;2023-04-27T03:04:34;98569.56;;;0.91;100.00
54936;BME280;40838;50.676;7.838;2023-04-27T03:07:01;98567.94;;;0.97;100.00
54936;BME280;40838;50.676;7.838;2023-04-27T03:12:50;98562.88;;;0.95;100.00
54936;BME280;40838;50.676;7.838;2023-04-27T03:15:17;98561.47;;;0.93;100.00
54936;BME280;40838;50.676;7.838;2023-04-27T03:18:01;98556.41;;;0.98;100.00
54936;BME280;40838;50.676;7.838;2023-04-27T03:20:29;98555.31;;;0.74;100.00
54936;BME280;40838;50.676;7.838;2023-04-27T03:29:03;98559.22;;;0.45;100.00
54936;BME280;40838;50.676;7.838;2023-04-27T03:31:48;98558.19;;;0.52;100.00
54936;BME280;40838;50.676;7.838;2023-04-27T03:43:27;98559.75;;;0.73;100.00
54936;BME280;40838;50.676;7.838;2023-04-27T03:48:39;98564.13;;;0.86;100.00
54936;BME280;40838;50.676;7.838;2023-04-27T03:51:28;98559.81;;;0.53;100.00
54936;BME280;40838;50.676;7.838;2023-04-27T03:54:38;98562.19;;;0.68;100.00
54936;BME280;40838;50.676;7.838;2023-04-27T03:59:53;98562.44;;;0.53;100.00
54936;BME280;40838;50.676;7.838;2023-04-27T04:02:40;98557.69;;;0.82;100.00
54936;BME280;40838;50.676;7.838;2023-04-27T04:05:10;98554.03;;;0.90;100.00
54936;BME280;40838;50.676;7.838;2023-04-27T04:10:42;98560.75;;;0.72;100.00
54936;BME280;40838;50.676;7.838;2023-04-27T04:13:27;98559.38;;;0.63;100.00
54936;BME280;40838;50.676;7.838;2023-04-27T04:16:02;98559.00;;;0.46;100.00
54936;BME280;40838;50.676;7.838;2023-04-27T04:21:32;98572.09;;;0.59;100.00
54936;BME280;40838;50.676;7.838;2023-04-27T04:23:59;98573.34;;;0.44;100.00
54936;BME280;40838;50.676;7.838;2023-04-27T04:26:44;98573.34;;;0.37;100.00
54936;BME280;40838;50.676;7.838;2023-04-27T04:32:16;98577.78;;;0.36;100.00
54936;BME280;40838;50.676;7.838;2023-04-27T04:35:01;98577.81;;;-0.03;100.00
54936;BME280;40838;50.676;7.838;2023-04-27T04:37:28;98577.19;;;0.28;100.00
54936;BME280;40838;50.676;7.838;2023-04-27T04:39:55;98582.97;;;0.56;100.00
54936;BME280;40838;50.676;7.838;2023-04-27T04:42:40;98582.19;;;0.56;100.00
54936;BME280;40838;50.676;7.838;2023-04-27T04:45:08;98588.84;;;0.58;100.00
54936;BME280;40838;50.676;7.838;2023-04-27T04:47:55;98582.38;;;0.61;100.00
54936;BME280;40838;50.676;7.838;2023-04-27T04:50:22;98594.06;;;0.65;100.00
54936;BME280;40838;50.676;7.838;2023-04-27T04:52:49;98587.16;;;0.77;100.00
54936;BME280;40838;50.676;7.838;2023-04-27T04:58:19;98591.06;;;1.13;100.00
54936;BME280;40838;50.676;7.838;2023-04-27T05:01:04;98587.00;;;1.17;100.00
54936;BME280;40838;50.676;7.838;2023-04-27T05:03:32;98592.53;;;1.41;100.00
54936;BME280;40838;50.676;7.838;2023-04-27T05:08:44;98605.31;;;1.31;100.00
54936;BME280;40838;50.676;7.838;2023-04-27T05:11:47;98600.94;;;1.56;100.00
54936;BME280;40838;50.676;7.838;2023-04-27T05:14:14;98602.81;;;2.06;100.00
54936;BME280;40838;50.676;7.838;2023-04-27T05:16:58;98602.66;;;2.26;100.00
54936;BME280;40838;50.676;7.838;2023-04-27T05:19:27;98607.13;;;2.18;100.00
54936;BME280;40838;50.676;7.838;2023-04-27T05:24:42;98597.06;;;2.15;100.00
54936;BME280;40838;50.676;7.838;2023-04-27T05:35:26;98600.34;;;2.11;100.00
54936;BME280;40838;50.676;7.838;2023-04-27T05:38:12;98607.34;;;1.67;100.00
54936;BME280;40838;50.676;7.838;2023-04-27T05:44:00;98620.97;;;1.82;100.00
54936;BME280;40838;50.676;7.838;2023-04-27T05:46:27;98619.63;;;1.98;100.00
54936;BME280;40838;50.676;7.838;2023-04-27T05:49:12;98628.84;;;3.01;100.00
54936;BME280;40838;50.676;7.838;2023-04-27T05:51:40;98615.81;;;2.88;100.00
54936;BME280;40838;50.676;7.838;2023-04-27T05:54:07;98612.47;;;6.10;81.14
54936;BME280;40838;50.676;7.838;2023-04-27T05:56:34;98613.09;;;4.85;87.95
54936;BME280;40838;50.676;7.838;2023-04-27T05:59:02;98623.69;;;3.96;93.21
54936;BME280;40838;50.676;7.838;2023-04-27T06:01:46;98618.53;;;5.07;85.93
54936;BME280;40838;50.676;7.838;2023-04-27T06:04:13;98633.63;;;3.83;95.48
54936;BME280;40838;50.676;7.838;2023-04-27T06:06:41;98624.78;;;7.15;78.42
54936;BME280;40838;50.676;7.838;2023-04-27T06:09:08;98637.16;;;5.70;82.70
54936;BME280;40838;50.676;7.838;2023-04-27T06:11:35;98626.28;;;5.83;86.44
54936;BME280;40838;50.676;7.838;2023-04-27T06:14:20;98626.13;;;5.44;87.30
54936;BME280;40838;50.676;7.838;2023-04-27T06:16:47;98634.78;;;8.12;69.12
54936;BME280;40838;50.676;7.838;2023-04-27T06:22:39;98623.38;;;13.45;41.75
54936;BME280;40838;50.676;7.838;2023-04-27T06:25:23;98619.75;;;13.55;39.29
54936;BME280;40838;50.676;7.838;2023-04-27T06:27:49;98628.72;;;12.25;41.53
54936;BME280;40838;50.676;7.838;2023-04-27T06:30:34;98637.78;;;8.52;54.32
54936;BME280;40838;50.676;7.838;2023-04-27T06:33:00;98627.69;;;9.80;53.39
54936;BME280;40838;50.676;7.838;2023-04-27T06:41:39;98626.91;;;14.16;36.41
54936;BME280;40838;50.676;7.838;2023-04-27T06:47:20;98636.19;;;14.98;34.57
54936;BME280;40838;50.676;7.838;2023-04-27T06:49:47;98626.97;;;14.11;35.37
54936;BME280;40838;50.676;7.838;2023-04-27T06:52:13;98627.50;;;13.38;34.59
54936;BME280;40838;50.676;7.838;2023-04-27T06:54:40;98624.13;;;13.51;36.45
54936;BME280;40838;50.676;7.838;2023-04-27T06:57:08;98635.09;;;11.45;38.70
54936;BME280;40838;50.676;7.838;2023-04-27T07:02:38;98631.56;;;9.42;42.96
54936;BME280;40838;50.676;7.838;2023-04-27T07:05:22;98623.44;;;10.10;40.88
54936;BME280;40838;50.676;7.838;2023-04-27T07:07:49;98633.03;;;8.22;43.88
54936;BME280;40838;50.676;7.838;2023-04-27T07:10:35;98630.38;;;7.90;42.38
54936;BME280;40838;50.676;7.838;2023-04-27T07:13:03;98625.31;;;7.34;42.61
54936;BME280;40838;50.676;7.838;2023-04-27T07:15:47;98636.75;;;6.96;45.25
54936;BME280;40838;50.676;7.838;2023-04-27T07:18:15;98638.84;;;5.88;52.60
54936;BME280;40838;50.676;7.838;2023-04-27T07:20:42;98641.72;;;5.74;51.99
54936;BME280;40838;50.676;7.838;2023-04-27T07:26:11;98629.72;;;9.58;38.96
54936;BME280;40838;50.676;7.838;2023-04-27T07:28:58;98621.81;;;10.35;36.67
54936;BME280;40838;50.676;7.838;2023-04-27T07:31:24;98626.34;;;9.78;36.62
54936;BME280;40838;50.676;7.838;2023-04-27T07:34:08;98623.63;;;11.40;34.50
54936;BME280;40838;50.676;7.838;2023-04-27T07:39:24;98630.09;;;10.07;37.36
54936;BME280;40838;50.676;7.838;2023-04-27T07:41:50;98624.78;;;12.12;34.82
54936;BME280;40838;50.676;7.838;2023-04-27T07:44:37;98630.00;;;9.61;39.78
54936;BME280;40838;50.676;7.838;2023-04-27T07:47:04;98631.09;;;8.50;40.15
54936;BME280;40838;50.676;7.838;2023-04-27T07:55:40;98619.91;;;8.43;41.49
54936;BME280;40838;50.676;7.838;2023-04-27T07:58:08;98610.13;;;9.95;36.61
54936;BME280;40838;50.676;7.838;2023-04-27T08:00:36;98598.34;;;11.77;34.41
54936;BME280;40838;50.676;7.838;2023-04-27T08:03:22;98604.28;;;10.18;37.49
54936;BME280;40838;50.676;7.838;2023-04-27T08:05:48;98610.50;;;12.27;32.98
54936;BME280;40838;50.676;7.838;2023-04-27T08:11:56;98591.03;;;13.80;32.93
54936;BME280;40838;50.676;7.838;2023-04-27T08:14:23;98590.59;;;13.91;32.28
54936;BME280;40838;50.676;7.838;2023-04-27T08:17:10;98598.69;;;8.95;38.50
54936;BME280;40838;50.676;7.838;2023-04-27T08:19:36;98605.34;;;9.03;38.35
54936;BME280;40838;50.676;7.838;2023-04-27T08:25:08;98605.25;;;11.38;34.89
54936;BME280;40838;50.676;7.838;2023-04-27T08:27:35;98610.69;;;9.08;38.80
54936;BME280;40838;50.676;7.838;2023-04-27T08:30:20;98608.66;;;10.94;34.87
54936;BME280;40838;50.676;7.838;2023-04-27T08:33:06;98601.47;;;12.52;34.96
54936;BME280;40838;50.676;7.838;2023-04-27T08:35:52;98596.13;;;11.94;34.22
54936;BME280;40838;50.676;7.838;2023-04-27T08:38:18;98604.28;;;12.37;34.89
54936;BME280;40838;50.676;7.838;2023-04-27T08:41:03;98605.00;;;11.84;34.25
54936;BME280;40838;50.676;7.838;2023-04-27T08:44:06;98613.06;;;10.19;36.41
54936;BME280;40838;50.676;7.838;2023-04-27T08:46:51;98601.16;;;11.51;34.10
54936;BME280;40838;50.676;7.838;2023-04-27T08:49:38;98603.47;;;11.23;33.71
54936;BME280;40838;50.676;7.838;2023-04-27T08:52:09;98591.38;;;11.86;33.74
54936;BME280;40838;50.676;7.838;2023-04-27T08:54:54;98592.72;;;10.64;38.85
54936;BME280;40838;50.676;7.838;2023-04-27T08:57:21;98594.88;;;10.77;36.22
54936;BME280;40838;50.676;7.838;2023-04-27T09:00:05;98597.22;;;9.25;39.20
54936;BME280;40838;50.676;7.838;2023-04-27T09:02:45;98591.38;;;10.82;36.26
54936;BME280;40838;50.676;7.838;2023-04-27T09:05:30;98592.44;;;12.96;31.36
54936;BME280;40838;50.676;7.838;2023-04-27T09:07:58;98582.53;;;14.10;30.85
54936;BME280;40838;50.676;7.838;2023-04-27T09:10:25;98595.06;;;11.90;32.00
54936;BME280;40838;50.676;7.838;2023-04-27T09:12:56;98589.81;;;11.75;32.99
54936;BME280;40838;50.676;7.838;2023-04-27T09:15:59;98588.78;;;10.46;37.94
54936;BME280;40838;50.676;7.838;2023-04-27T09:27:24;98586.16;;;12.05;34.23
54936;BME280;40838;50.676;7.838;2023-04-27T09:32:55;98568.00;;;13.98;32.85
54936;BME280;40838;50.676;7.838;2023-04-27T09:35:24;98567.28;;;12.78;32.19
54936;BME280;40838;50.676;7.838;2023-04-27T09:41:32;98580.56;;;9.91;38.14
54936;BME280;40838;50.676;7.838;2023-04-27T09:44:01;98573.53;;;10.77;34.98
54936;BME280;40838;50.676;7.838;2023-04-27T09:49:14;98553.81;;;15.13;32.92
54936;BME280;40838;50.676;7.838;2023-04-27T09:51:41;98553.75;;;14.63;30.81
54936;BME280;40838;50.676;7.838;2023-04-27T09:54:08;98557.53;;;14.15;34.31
54936;BME280;40838;50.676;7.838;2023-04-27T09:56:58;98564.28;;;12.03;33.53
54936;BME280;40838;50.676;7.838;2023-04-27T09:59:51;98561.94;;;12.97;35.18
54936;BME280;40838;50.676;7.838;2023-04-27T10:05:36;98571.97;;;15.88;29.71
54936;BME280;40838;50.676;7.838;2023-04-27T10:08:05;98561.84;;;15.13;30.90
54936;BME280;40838;50.676;7.838;2023-04-27T10:10:40;98556.69;;;13.30;30.31
54936;BME280;40838;50.676;7.838;2023-04-27T10:16:17;98554.09;;;13.06;34.85
54936;BME280;40838;50.676;7.838;2023-04-27T10:18:49;98543.81;;;13.70;32.78
54936;BME280;40838;50.676;7.838;2023-04-27T10:24:19;98544.28;;;15.88;30.45
54936;BME280;40838;50.676;7.838;2023-04-27T10:27:15;98547.75;;;14.93;32.92
54936;BME280;40838;50.676;7.838;2023-04-27T10:29:45;98544.13;;;15.39;32.50
54936;BME280;40838;50.676;7.838;2023-04-27T10:35:17;98549.97;;;13.33;34.76
54936;BME280;40838;50.676;7.838;2023-04-27T10:43:34;98547.66;;;13.26;35.79
54936;BME280;40838;50.676;7.838;2023-04-27T10:46:07;98537.03;;;14.93;32.67
54936;BME280;40838;50.676;7.838;2023-04-27T10:48:52;98536.84;;;12.21;33.64
54936;BME280;40838;50.676;7.838;2023-04-27T10:57:11;98514.25;;;15.04;33.13
54936;BME280;40838;50.676;7.838;2023-04-27T10:59:46;98516.69;;;14.37;33.15
54936;BME280;40838;50.676;7.838;2023-04-27T11:05:35;98507.53;;;14.10;32.65
54936;BME280;40838;50.676;7.838;2023-04-27T11:11:05;98496.53;;;14.81;36.41
54936;BME280;40838;50.676;7.838;2023-04-27T11:13:35;98505.41;;;13.61;33.51
54936;BME280;40838;50.676;7.838;2023-04-27T11:16:03;98518.47;;;10.47;40.13
54936;BME280;40838;50.676;7.838;2023-04-27T11:18:47;98510.22;;;10.43;38.98
54936;BME280;40838;50.676;7.838;2023-04-27T11:24:16;98513.72;;;9.16;42.42
54936;BME280;40838;50.676;7.838;2023-04-27T11:29:37;98509.25;;;9.88;40.51
54936;BME280;40838;50.676;7.838;2023-04-27T11:32:05;98508.94;;;11.00;41.21
54936;BME280;40838;50.676;7.838;2023-04-27T11:37:36;98505.72;;;11.43;39.50
54936;BME280;40838;50.676;7.838;2023-04-27T11:40:03;98500.78;;;11.60;37.61
54936;BME280;40838;50.676;7.838;2023-04-27T11:42:55;98494.19;;;12.40;37.85
54936;BME280;40838;50.676;7.838;2023-04-27T11:45:24;98503.97;;;12.50;38.46
54936;BME280;40838;50.676;7.838;2023-04-27T11:47:51;98502.75;;;13.04;37.31
54936;BME280;40838;50.676;7.838;2023-04-27T11:53:29;98487.88;;;13.17;37.19
54936;BME280;40838;50.676;7.838;2023-04-27T11:56:15;98488.13;;;12.34;38.67
54936;BME280;40838;50.676;7.838;2023-04-27T11:58:42;98494.69;;;12.42;38.92
54936;BME280;40838;50.676;7.838;2023-04-27T12:03:56;98498.09;;;12.00;39.56
54936;BME280;40838;50.676;7.838;2023-04-27T12:06:23;98489.72;;;11.82;38.79
54936;BME280;40838;50.676;7.838;2023-04-27T12:08:50;98486.53;;;12.57;38.16
54936;BME280;40838;50.676;7.838;2023-04-27T12:11:16;98496.69;;;11.39;38.69
54936;BME280;40838;50.676;7.838;2023-04-27T12:13:43;98499.97;;;10.81;39.11
54936;BME280;40838;50.676;7.838;2023-04-27T12:16:13;98490.47;;;11.49;39.17
54936;BME280;40838;50.676;7.838;2023-04-27T12:18:39;98492.66;;;11.81;39.78
54936;BME280;40838;50.676;7.838;2023-04-27T12:27:33;98474.03;;;12.05;37.30
54936;BME280;40838;50.676;7.838;2023-04-27T12:41:38;98465.88;;;11.57;37.34
54936;BME280;40838;50.676;7.838;2023-04-27T12:47:10;98463.97;;;12.21;37.73
54936;BME280;40838;50.676;7.838;2023-04-27T12:49:55;98470.03;;;11.73;37.67
54936;BME280;40838;50.676;7.838;2023-04-27T12:55:26;98457.81;;;13.25;37.58
54936;BME280;40838;50.676;7.838;2023-04-27T12:58:10;98457.88;;;13.20;37.99
54936;BME280;40838;50.676;7.838;2023-04-27T13:00:36;98451.38;;;13.26;34.53
54936;BME280;40838;50.676;7.838;2023-04-27T13:03:05;98457.31;;;11.26;37.80
54936;BME280;40838;50.676;7.838;2023-04-27T13:05:50;98445.53;;;12.86;36.30
54936;BME280;40838;50.676;7.838;2023-04-27T13:08:17;98444.69;;;13.42;34.16
54936;BME280;40838;50.676;7.838;2023-04-27T13:13:47;98435.28;;;14.74;29.75
54936;BME280;40838;50.676;7.838;2023-04-27T13:19:19;98441.16;;;14.63;35.32
54936;BME280;40838;50.676;7.838;2023-04-27T13:21:45;98444.22;;;14.14;34.03
54936;BME280;40838;50.676;7.838;2023-04-27T13:24:12;98439.28;;;14.63;34.33
54936;BME280;40838;50.676;7.838;2023-04-27T13:26:56;98440.06;;;14.08;33.34
54936;BME280;40838;50.676;7.838;2023-04-27T13:32:07;98441.88;;;11.57;35.51
54936;BME280;40838;50.676;7.838;2023-04-27T13:37:40;98447.59;;;13.92;35.72
54936;BME280;40838;50.676;7.838;2023-04-27T13:40:23;98443.63;;;13.90;36.11
54936;BME280;40838;50.676;7.838;2023-04-27T13:42:54;98444.72;;;13.56;35.15
54936;BME280;40838;50.676;7.838;2023-04-27T13:45:20;98447.59;;;11.40;36.25
54936;BME280;40838;50.676;7.838;2023-04-27T13:48:06;98443.38;;;12.45;34.92
54936;BME280;40838;50.676;7.838;2023-04-27T13:50:50;98436.88;;;12.75;35.30
54936;BME280;40838;50.676;7.838;2023-04-27T13:53:18;98432.63;;;13.91;34.92
54936;BME280;40838;50.676;7.838;2023-04-27T13:56:03;98425.56;;;14.51;34.24
54936;BME280;40838;50.676;7.838;2023-04-27T13:58:47;98427.63;;;14.68;32.69
54936;BME280;40838;50.676;7.838;2023-04-27T14:04:00;98436.97;;;12.22;35.30
54936;BME280;40838;50.676;7.838;2023-04-27T14:15:03;98435.47;;;11.87;35.66
54936;BME280;40838;50.676;7.838;2023-04-27T14:17:30;98423.75;;;12.12;35.73
54936;BME280;40838;50.676;7.838;2023-04-27T14:19:57;98427.28;;;11.78;38.34
54936;BME280;40838;50.676;7.838;2023-04-27T14:22:41;98427.63;;;12.44;36.26
54936;BME280;40838;50.676;7.838;2023-04-27T14:25:25;98425.50;;;12.65;35.13
54936;BME280;40838;50.676;7.838;2023-04-27T14:31:01;98412.44;;;12.82;37.44
54936;BME280;40838;50.676;7.838;2023-04-27T14:33:27;98420.41;;;12.63;37.11
54936;BME280;40838;50.676;7.838;2023-04-27T14:35:54;98420.09;;;13.40;36.80
54936;BME280;40838;50.676;7.838;2023-04-27T14:38:40;98414.00;;;13.21;34.63
54936;BME280;40838;50.676;7.838;2023-04-27T14:41:07;98422.94;;;11.24;37.24
54936;BME280;40838;50.676;7.838;2023-04-27T14:43:34;98412.13;;;12.65;34.86
54936;BME280;40838;50.676;7.838;2023-04-27T14:46:02;98406.53;;;12.85;36.13
54936;BME280;40838;50.676;7.838;2023-04-27T14:49:05;98408.22;;;12.14;36.42
54936;BME280;40838;50.676;7.838;2023-04-27T14:51:31;98402.72;;;12.48;35.61
54936;BME280;40838;50.676;7.838;2023-04-27T14:53:58;98403.91;;;11.65;37.34
54936;BME280;40838;50.676;7.838;2023-04-27T14:59:28;98399.16;;;13.29;35.06
54936;BME280;40838;50.676;7.838;2023-04-27T15:02:14;98396.34;;;13.53;33.20
54936;BME280;40838;50.676;7.838;2023-04-27T15:04:40;98396.47;;;13.61;34.97
54936;BME280;40838;50.676;7.838;2023-04-27T15:09:52;98392.13;;;11.08;36.87
54936;BME280;40838;50.676;7.838;2023-04-27T15:12:19;98378.34;;;12.12;35.59
54936;BME280;40838;50.676;7.838;2023-04-27T15:14:46;98377.59;;;13.06;33.51
54936;BME280;40838;50.676;7.838;2023-04-27T15:17:31;98369.09;;;12.66;33.80
54936;BME280;40838;50.676;7.838;2023-04-27T15:22:43;98356.59;;;12.80;33.05
54936;BME280;40838;50.676;7.838;2023-04-27T15:25:09;98350.94;;;13.47;32.63
54936;BME280;40838;50.676;7.838;2023-04-27T15:27:53;98353.28;;;13.82;33.90
54936;BME280;40838;50.676;7.838;2023-04-27T15:30:21;98358.19;;;11.48;37.98
54936;BME280;40838;50.676;7.838;2023-04-27T15:32:49;98355.81;;;11.99;35.06
54936;BME280;40838;50.676;7.838;2023-04-27T15:41:41;98346.22;;;13.58;34.38
54936;BME280;40838;50.676;7.838;2023-04-27T15:44:08;98341.88;;;14.04;33.11
54936;BME280;40838;50.676;7.838;2023-04-27T15:46:35;98344.34;;;14.00;32.03
54936;BME280;40838;50.676;7.838;2023-04-27T15:49:22;98340.69;;;12.32;34.97
54936;BME280;40838;50.676;7.838;2023-04-27T15:52:10;98341.09;;;13.29;36.96
54936;BME280;40838;50.676;7.838;2023-04-27T15:54:55;98335.84;;;13.70;35.18
54936;BME280;40838;50.676;7.838;2023-04-27T15:57:22;98341.41;;;13.28;34.49
54936;BME280;40838;50.676;7.838;2023-04-27T15:59:50;98336.16;;;13.36;34.97
54936;BME280;40838;50.676;7.838;2023-04-27T16:02:35;98340.59;;;13.13;36.44
54936;BME280;40838;50.676;7.838;2023-04-27T16:05:03;98332.22;;;13.01;36.60
54936;BME280;40838;50.676;7.838;2023-04-27T16:08:06;98327.44;;;12.46;36.50
54936;BME280;40838;50.676;7.838;2023-04-27T16:10:50;98326.81;;;12.68;37.16
54936;BME280;40838;50.676;7.838;2023-04-27T16:16:39;98322.16;;;11.79;39.15
54936;BME280;40838;50.676;7.838;2023-04-27T16:19:24;98325.66;;;12.36;38.45
54936;BME280;40838;50.676;7.838;2023-04-27T16:22:10;98326.03;;;12.30;37.75
54936;BME280;40838;50.676;7.838;2023-04-27T16:30:45;98318.41;;;11.27;42.75
54936;BME280;40838;50.676;7.838;2023-04-27T16:33:12;98315.81;;;11.70;40.12
54936;BME280;40838;50.676;7.838;2023-04-27T16:38:45;98324.78;;;10.58;42.79
54936;BME280;40838;50.676;7.838;2023-04-27T16:41:11;98319.91;;;10.70;42.76
54936;BME280;40838;50.676;7.838;2023-04-27T16:43:57;98322.53;;;11.14;42.05
54936;BME280;40838;50.676;7.838;2023-04-27T16:49:47;98320.34;;;10.87;42.06
54936;BME280;40838;50.676;7.838;2023-04-27T16:52:50;98328.59;;;10.91;42.82
54936;BME280;40838;50.676;7.838;2023-04-27T16:55:19;98314.38;;;11.54;41.47
54936;BME280;40838;50.676;7.838;2023-04-27T16:57:45;98316.78;;;11.55;41.13
54936;BME280;40838;50.676;7.838;2023-04-27T17:00:12;98309.94;;;11.20;44.64
54936;BME280;40838;50.676;7.838;2023-04-27T17:02:39;98313.25;;;11.60;40.30
54936;BME280;40838;50.676;7.838;2023-04-27T17:05:23;98322.63;;;10.99;41.55
54936;BME280;40838;50.676;7.838;2023-04-27T17:08:28;98324.78;;;10.13;44.37
54936;BME280;40838;50.676;7.838;2023-04-27T17:10:56;98319.88;;;10.75;42.77
54936;BME280;40838;50.676;7.838;2023-04-27T17:16:26;98308.88;;;11.45;42.65
54936;BME280;40838;50.676;7.838;2023-04-27T17:18:53;98316.13;;;10.81;45.19
54936;BME280;40838;50.676;7.838;2023-04-27T17:21:21;98309.59;;;10.97;43.41
54936;BME280;40838;50.676;7.838;2023-04-27T17:24:06;98310.16;;;10.55;45.42
54936;BME280;40838;50.676;7.838;2023-04-27T17:26:51;98310.59;;;11.07;43.42
54936;BME280;40838;50.676;7.838;2023-04-27T17:29:36;98316.63;;;10.88;43.20
54936;BME280;40838;50.676;7.838;2023-04-27T17:32:21;98311.44;;;10.63;44.85
54936;BME280;40838;50.676;7.838;2023-04-27T17:40:53;98299.66;;;10.69;44.71
54936;BME280;40838;50.676;7.838;2023-04-27T17:43:39;98298.75;;;10.00;47.84
54936;BME280;40838;50.676;7.838;2023-04-27T17:46:06;98296.69;;;10.81;46.29
54936;BME280;40838;50.676;7.838;2023-04-27T17:51:54;98291.09;;;11.11;48.35
54936;BME280;40838;50.676;7.838;2023-04-27T17:54:39;98285.06;;;11.00;47.33
54936;BME280;40838;50.676;7.838;2023-04-27T17:57:23;98286.53;;;10.43;48.71
54936;BME280;40838;50.676;7.838;2023-04-27T17:59:51;98292.91;;;10.47;48.67
54936;BME280;40838;50.676;7.838;2023-04-27T18:02:17;98288.53;;;10.96;48.70
54936;BME280;40838;50.676;7.838;2023-04-27T18:05:02;98290.38;;;10.66;49.44
54936;BME280;40838;50.676;7.838;2023-04-27T18:07:50;98280.09;;;10.49;49.88
54936;BME280;40838;50.676;7.838;2023-04-27T18:13:39;98285.19;;;10.01;52.33
54936;BME280;40838;50.676;7.838;2023-04-27T18:16:08;98287.28;;;10.09;52.90
54936;BME280;40838;50.676;7.838;2023-04-27T18:18:35;98290.72;;;10.15;53.94
54936;BME280;40838;50.676;7.838;2023-04-27T18:21:02;98282.13;;;9.69;57.17
54936;BME280;40838;50.676;7.838;2023-04-27T18:24:05;98298.50;;;10.01;56.44
54936;BME280;40838;50.676;7.838;2023-04-27T18:26:33;98291.63;;;9.90;56.54
54936;BME280;40838;50.676;7.838;2023-04-27T18:32:42;98282.63;;;9.76;56.03
54936;BME280;40838;50.676;7.838;2023-04-27T18:35:08;98291.16;;;9.73;57.58
54936;BME280;40838;50.676;7.838;2023-04-27T18:37:52;98294.09;;;9.61;58.20
54936;BME280;40838;50.676;7.838;2023-04-27T18:40:19;98290.94;;;9.43;57.54